createdAt,value
2023-01-30T00:02:12.600Z,91.06
2023-01-30T00:04:49.018Z,91.20
2023-01-30T00:07:25.076Z,91.14
2023-01-30T00:10:01.342Z,91.21
2023-01-30T00:12:37.703Z,90.79
2023-01-30T00:15:18.835Z,90.76
2023-01-30T00:17:55.206Z,90.79
2023-01-30T00:20:31.609Z,91.17
2023-01-30T00:23:07.693Z,91.27
2023-01-30T00:25:42.059Z,91.22
2023-01-30T00:28:18.940Z,91.13
2023-01-30T00:30:56.286Z,91.36
2023-01-30T00:33:31.567Z,91.16
2023-01-30T00:36:07.198Z,91.21
2023-01-30T00:38:43.639Z,91.31
2023-01-30T00:41:20.006Z,91.37
2023-01-30T00:44:12.084Z,91.35
2023-01-30T00:47:04.686Z,91.08
2023-01-30T00:49:40.963Z,91.02
2023-01-30T00:52:18.466Z,91.20
2023-01-30T00:54:53.834Z,91.34
2023-01-30T00:57:30.361Z,91.08
2023-01-30T01:00:11.667Z,91.39
2023-01-30T01:02:47.598Z,91.40
2023-01-30T01:05:22.568Z,91.17
2023-01-30T01:07:59.568Z,91.30
2023-01-30T01:10:35.508Z,91.32
2023-01-30T01:13:14.790Z,91.61
2023-01-30T01:15:50.915Z,91.41
2023-01-30T01:18:26.166Z,91.31
2023-01-30T01:21:04.149Z,91.39
2023-01-30T01:23:39.240Z,91.31
2023-01-30T01:26:15.777Z,91.14
2023-01-30T01:28:51.831Z,91.38
2023-01-30T01:31:32.279Z,91.28
2023-01-30T01:34:07.246Z,91.29
2023-01-30T01:36:59.157Z,90.83
2023-01-30T01:39:46.663Z,91.26
2023-01-30T01:42:24.739Z,91.27
2023-01-30T01:45:21.311Z,90.86
2023-01-30T01:48:05.789Z,90.89
2023-01-30T01:50:50.811Z,91.04
2023-01-30T01:53:30.084Z,91.12
2023-01-30T01:56:06.174Z,91.14
2023-01-30T01:58:46.047Z,91.25
2023-01-30T02:01:22.690Z,90.95
2023-01-30T02:04:05.276Z,90.60
2023-01-30T02:06:42.308Z,91.10
2023-01-30T02:09:19.768Z,90.84
2023-01-30T02:12:02.736Z,90.99
2023-01-30T02:14:41.988Z,90.66
2023-01-30T02:17:16.802Z,90.88
2023-01-30T02:19:58.801Z,90.94
2023-01-30T02:23:19.832Z,90.83
2023-01-30T02:26:21.937Z,90.39
2023-01-30T02:29:38.783Z,90.59
2023-01-30T02:32:23.363Z,90.96
2023-01-30T02:35:06.921Z,90.86
2023-01-30T02:37:54.486Z,90.87
2023-01-30T02:40:42.688Z,90.87
2023-01-30T02:43:26.226Z,90.85
2023-01-30T02:46:10.721Z,90.80
2023-01-30T02:48:49.713Z,90.76
2023-01-30T02:51:32.461Z,90.56
2023-01-30T02:54:12.707Z,90.60
2023-01-30T02:56:52.718Z,90.71
2023-01-30T02:59:44.702Z,90.46
2023-01-30T03:03:07.439Z,90.31
2023-01-30T03:05:55.974Z,90.03
2023-01-30T03:08:43.193Z,90.37
2023-01-30T03:11:18.799Z,90.64
2023-01-30T03:14:02.074Z,89.90
2023-01-30T03:16:39.259Z,90.40
2023-01-30T03:19:15.578Z,90.25
2023-01-30T03:21:50.365Z,90.29
2023-01-30T03:24:26.190Z,90.23
2023-01-30T03:27:13.186Z,90.23
2023-01-30T03:29:48.374Z,89.98
2023-01-30T03:32:23.214Z,89.83
2023-01-30T03:34:58.930Z,89.74
2023-01-30T03:37:35.130Z,89.70
2023-01-30T03:40:15.058Z,89.46
2023-01-30T03:42:50.356Z,89.50
2023-01-30T03:45:24.931Z,89.21
2023-01-30T03:48:01.584Z,89.27
2023-01-30T03:50:40.650Z,88.94
2023-01-30T03:53:15.336Z,89.21
2023-01-30T03:55:51.901Z,89.32
2023-01-30T03:58:31.721Z,89.27
2023-01-30T04:01:08.234Z,88.90
2023-01-30T04:03:44.280Z,88.76
2023-01-30T04:06:20.158Z,88.87
2023-01-30T04:08:57.821Z,88.90
2023-01-30T04:11:43.152Z,88.88
2023-01-30T04:14:17.283Z,88.81
2023-01-30T04:17:14.946Z,88.94
2023-01-30T04:20:14.342Z,88.63
2023-01-30T04:22:54.522Z,88.65
2023-01-30T04:25:29.931Z,88.79
2023-01-30T04:28:07.611Z,88.83
2023-01-30T04:30:43.526Z,88.64
2023-01-30T04:33:35.579Z,88.63
2023-01-30T04:36:14.530Z,88.54
2023-01-30T04:38:49.230Z,88.71
2023-01-30T04:41:25.384Z,88.88
2023-01-30T04:44:04.494Z,89.26
2023-01-30T04:47:06.419Z,89.25
2023-01-30T04:49:41.058Z,89.27
2023-01-30T04:52:16.813Z,89.40
2023-01-30T04:54:51.239Z,89.62
2023-01-30T04:57:25.731Z,89.82
2023-01-30T05:00:00.965Z,89.57
2023-01-30T05:02:36.842Z,89.70
2023-01-30T05:05:12.495Z,90.14
2023-01-30T05:07:53.168Z,89.94
2023-01-30T05:10:27.969Z,90.17
2023-01-30T05:13:06.681Z,90.18
2023-01-30T05:15:44.680Z,90.17
2023-01-30T05:18:18.453Z,90.27
2023-01-30T05:20:56.342Z,90.48
2023-01-30T05:23:33.135Z,90.79
2023-01-30T05:26:10.163Z,90.92
2023-01-30T05:28:45.814Z,90.74
2023-01-30T05:31:20.452Z,91.13
2023-01-30T05:33:58.014Z,91.32
2023-01-30T05:36:33.327Z,91.05
2023-01-30T05:39:08.206Z,91.42
2023-01-30T05:41:44.804Z,91.18
2023-01-30T05:44:22.747Z,91.42
2023-01-30T05:46:56.668Z,91.33
2023-01-30T05:49:31.747Z,91.33
2023-01-30T05:52:07.357Z,91.55
2023-01-30T05:54:42.960Z,91.50
2023-01-30T05:57:18.585Z,91.41
2023-01-30T05:59:53.241Z,91.77
2023-01-30T06:02:28.225Z,91.88
2023-01-30T06:05:03.837Z,91.76
2023-01-30T06:07:37.793Z,92.03
2023-01-30T06:10:20.162Z,91.56
2023-01-30T06:12:55.151Z,91.71
2023-01-30T06:15:29.388Z,92.03
2023-01-30T06:18:05.896Z,91.77
2023-01-30T06:20:41.879Z,91.55
2023-01-30T06:23:18.157Z,91.80
2023-01-30T06:25:56.409Z,91.95
2023-01-30T06:28:32.859Z,91.60
2023-01-30T06:31:10.788Z,91.94
2023-01-30T06:33:47.266Z,91.73
2023-01-30T06:36:23.011Z,91.88
2023-01-30T06:38:57.928Z,91.71
2023-01-30T06:41:34.879Z,91.80
2023-01-30T06:44:09.609Z,91.63
2023-01-30T06:46:43.807Z,91.66
2023-01-30T06:49:18.496Z,91.61
2023-01-30T06:51:54.169Z,91.56
2023-01-30T06:54:29.074Z,91.51
2023-01-30T06:57:03.911Z,91.57
2023-01-30T06:59:38.829Z,91.28
2023-01-30T07:02:14.610Z,91.53
2023-01-30T07:04:49.849Z,91.07
2023-01-30T07:07:24.961Z,91.19
2023-01-30T07:10:07.771Z,91.06
2023-01-30T07:12:44.007Z,91.28
2023-01-30T07:15:21.244Z,91.29
2023-01-30T07:17:55.638Z,91.08
2023-01-30T07:20:32.017Z,91.20
2023-01-30T07:23:08.997Z,91.44
2023-01-30T07:25:43.608Z,91.40
2023-01-30T07:28:18.771Z,91.44
2023-01-30T07:30:54.309Z,91.39
2023-01-30T07:33:28.955Z,91.76
2023-01-30T07:36:04.396Z,92.04
2023-01-30T07:38:39.703Z,92.15
2023-01-30T07:41:14.539Z,92.27
2023-01-30T07:43:50.552Z,92.57
2023-01-30T07:46:25.746Z,92.41
2023-01-30T07:49:01.088Z,92.40
2023-01-30T07:51:37.293Z,92.71
2023-01-30T07:54:14.071Z,92.67
2023-01-30T07:56:48.078Z,92.98
2023-01-30T07:59:23.058Z,93.17
2023-01-30T08:01:58.923Z,93.27
2023-01-30T08:04:34.642Z,93.44
2023-01-30T08:07:11.778Z,93.59
2023-01-30T08:09:52.642Z,93.34
2023-01-30T08:12:29.515Z,93.62
2023-01-30T08:15:04.800Z,93.42
2023-01-30T08:17:39.746Z,93.36
2023-01-30T08:20:18.748Z,93.49
2023-01-30T08:22:55.124Z,93.60
2023-01-30T08:25:37.299Z,94.01
2023-01-30T08:28:14.191Z,93.92
2023-01-30T08:30:49.819Z,94.08
2023-01-30T08:33:29.841Z,94.17
2023-01-30T08:36:04.696Z,94.07
2023-01-30T08:38:40.873Z,94.42
2023-01-30T08:41:15.179Z,94.11
2023-01-30T08:43:50.568Z,94.42
2023-01-30T08:46:28.751Z,94.29
2023-01-30T08:49:05.544Z,94.36
2023-01-30T08:51:40.161Z,94.47
2023-01-30T08:54:15.640Z,94.38
2023-01-30T08:56:52.747Z,94.77
2023-01-30T08:59:26.555Z,94.69
2023-01-30T09:02:01.358Z,94.61
2023-01-30T09:04:38.527Z,94.60
2023-01-30T09:07:13.248Z,94.47
2023-01-30T09:09:50.797Z,94.53
2023-01-30T09:12:25.548Z,94.92
2023-01-30T09:15:02.875Z,94.62
2023-01-30T09:17:40.200Z,94.93
2023-01-30T09:20:22.432Z,95.21
2023-01-30T09:22:59.205Z,94.82
2023-01-30T09:25:35.126Z,94.90
2023-01-30T09:28:09.673Z,95.02
2023-01-30T09:30:46.718Z,95.04
2023-01-30T09:33:22.317Z,94.93
2023-01-30T09:35:57.715Z,95.26
2023-01-30T09:38:34.187Z,95.50
2023-01-30T09:41:29.213Z,95.27
2023-01-30T09:44:41.960Z,95.01
2023-01-30T09:47:25.722Z,95.78
2023-01-30T09:50:19.110Z,95.67
2023-01-30T09:53:06.074Z,95.87
2023-01-30T09:55:44.528Z,95.81
2023-01-30T09:58:23.899Z,95.36
2023-01-30T10:01:09.740Z,95.53
2023-01-30T10:03:56.829Z,95.77
2023-01-30T10:06:33.337Z,95.56
2023-01-30T10:09:16.082Z,95.73
2023-01-30T10:12:10.141Z,95.58
2023-01-30T10:15:08.132Z,95.46
2023-01-30T10:17:56.665Z,95.58
2023-01-30T10:20:39.828Z,95.79
2023-01-30T10:23:29.711Z,95.66
2023-01-30T10:26:11.997Z,95.52
2023-01-30T10:29:06.571Z,95.64
2023-01-30T10:31:48.140Z,95.76
2023-01-30T10:34:30.410Z,95.62
2023-01-30T10:37:11.719Z,95.69
2023-01-30T10:39:57.636Z,95.74
2023-01-30T10:42:41.471Z,95.94
2023-01-30T10:45:26.783Z,95.83
2023-01-30T10:48:19.802Z,95.71
2023-01-30T10:51:00.093Z,95.92
2023-01-30T10:53:49.531Z,96.22
2023-01-30T10:56:33.738Z,96.09
2023-01-30T10:59:35.874Z,95.64
2023-01-30T11:02:27.283Z,96.29
2023-01-30T11:05:20.025Z,96.56
2023-01-30T11:07:55.822Z,96.17
2023-01-30T11:10:51.886Z,96.57
2023-01-30T11:13:34.144Z,96.21
2023-01-30T11:16:16.318Z,96.37
2023-01-30T11:19:19.446Z,96.05
2023-01-30T11:22:12.800Z,96.44
2023-01-30T11:25:14.899Z,95.99
2023-01-30T11:28:03.646Z,96.34
2023-01-30T11:30:48.260Z,96.23
2023-01-30T11:33:34.691Z,96.16
2023-01-30T11:36:32.610Z,96.29
2023-01-30T11:39:23.589Z,96.32
2023-01-30T11:42:14.427Z,96.46
2023-01-30T11:45:10.844Z,96.16
2023-01-30T11:48:03.660Z,96.25
2023-01-30T11:50:49.457Z,96.28
2023-01-30T11:53:32.708Z,96.25
2023-01-30T11:56:44.555Z,96.01
2023-01-30T11:59:29.069Z,95.99
2023-01-30T12:02:20.113Z,95.89
2023-01-30T12:05:01.627Z,95.73
2023-01-30T12:07:48.552Z,95.73
2023-01-30T12:10:34.425Z,95.71
2023-01-30T12:13:25.669Z,96.00
2023-01-30T12:16:32.739Z,95.53
2023-01-30T12:19:24.733Z,95.37
2023-01-30T12:22:09.595Z,95.39
2023-01-30T12:24:59.379Z,95.34
2023-01-30T12:30:40.907Z,95.63
2023-01-30T12:33:23.979Z,95.15
2023-01-30T12:36:13.349Z,95.27
2023-01-30T12:39:08.273Z,95.45
2023-01-30T12:42:04.643Z,95.71
2023-01-30T12:44:57.177Z,95.31
2023-01-30T12:47:57.150Z,95.13
2023-01-30T12:50:49.707Z,94.94
2023-01-30T12:53:45.864Z,95.14
2023-01-30T12:56:45.555Z,94.96
2023-01-30T12:59:29.955Z,95.12
2023-01-30T13:02:26.890Z,95.16
2023-01-30T13:05:25.578Z,94.67
2023-01-30T13:08:14.014Z,95.08
2023-01-30T13:10:59.532Z,95.05
2023-01-30T13:13:46.874Z,94.55
2023-01-30T13:16:37.233Z,94.56
2023-01-30T13:19:21.163Z,94.39
2023-01-30T13:22:07.727Z,94.32
2023-01-30T13:24:58.331Z,94.26
2023-01-30T13:27:37.725Z,93.71
2023-01-30T13:30:20.403Z,93.51
2023-01-30T13:33:02.527Z,93.48
2023-01-30T13:35:42.725Z,93.18
2023-01-30T13:38:21.358Z,93.28
2023-01-30T13:41:03.367Z,93.37
2023-01-30T13:43:44.822Z,93.05
2023-01-30T13:46:25.934Z,92.79
2023-01-30T13:49:11.957Z,92.66
2023-01-30T13:51:58.255Z,92.69
2023-01-30T13:54:46.715Z,92.61
2023-01-30T13:57:31.156Z,92.42
2023-01-30T14:00:43.990Z,92.36
2023-01-30T14:03:44.284Z,92.54
2023-01-30T14:06:53.704Z,92.75
2023-01-30T14:09:34.097Z,92.82
2023-01-30T14:12:21.318Z,92.65
2023-01-30T14:15:06.913Z,92.48
2023-01-30T14:17:59.573Z,92.60
2023-01-30T14:20:40.281Z,92.82
2023-01-30T14:23:27.590Z,92.81
2023-01-30T14:26:03.645Z,92.37
2023-01-30T14:28:55.724Z,92.41
2023-01-30T14:31:56.151Z,92.21
2023-01-30T14:34:49.837Z,92.03
2023-01-30T14:37:52.904Z,91.88
2023-01-30T14:40:43.880Z,92.10
2023-01-30T14:43:54.628Z,92.07
2023-01-30T14:46:59.263Z,92.37
2023-01-30T14:49:37.582Z,92.01
2023-01-30T14:52:40.224Z,92.04
2023-01-30T14:55:29.650Z,91.85
2023-01-30T14:58:17.681Z,92.17
2023-01-30T15:01:06.222Z,91.99
2023-01-30T15:03:47.882Z,92.01
2023-01-30T15:06:27.206Z,92.31
2023-01-30T15:09:03.315Z,92.47
2023-01-30T15:11:40.305Z,92.82
2023-01-30T15:14:21.423Z,92.68
2023-01-30T15:17:07.711Z,92.87
2023-01-30T15:19:58.077Z,93.25
2023-01-30T15:22:47.782Z,93.28
2023-01-30T15:25:40.619Z,93.47
2023-01-30T15:28:30.928Z,93.42
2023-01-30T15:31:18.253Z,93.74
2023-01-30T15:33:57.097Z,93.64
2023-01-30T15:36:35.286Z,93.74
2023-01-30T15:39:21.800Z,93.40
2023-01-30T15:42:02.869Z,93.53
2023-01-30T15:45:03.162Z,93.33
2023-01-30T15:47:55.950Z,93.28
2023-01-30T15:50:33.007Z,93.04
2023-01-30T15:53:17.447Z,93.14
2023-01-30T15:55:55.584Z,93.23
2023-01-30T15:58:33.576Z,93.00
2023-01-30T16:01:09.276Z,93.31
2023-01-30T16:03:47.770Z,93.33
2023-01-30T16:06:38.618Z,93.35
2023-01-30T16:09:24.506Z,93.57
2023-01-30T16:11:59.081Z,93.32
2023-01-30T16:14:36.336Z,93.20
2023-01-30T16:17:15.907Z,93.16
2023-01-30T16:19:50.834Z,93.60
2023-01-30T16:22:25.799Z,93.58
2023-01-30T16:25:04.785Z,93.41
2023-01-30T16:27:42.199Z,93.24
2023-01-30T16:30:22.908Z,93.62
2023-01-30T16:33:00.145Z,93.51
2023-01-30T16:35:38.269Z,93.62
2023-01-30T16:38:39.753Z,93.69
2023-01-30T16:41:55.106Z,93.75
2023-01-30T16:44:34.533Z,93.75
2023-01-30T16:47:24.519Z,93.45
2023-01-30T16:50:01.505Z,93.72
2023-01-30T16:52:41.437Z,93.57
2023-01-30T16:55:26.835Z,93.83
2023-01-30T16:58:04.688Z,93.66
2023-01-30T17:00:41.608Z,93.92
2023-01-30T17:03:26.317Z,94.13
2023-01-30T17:06:06.700Z,93.54
2023-01-30T17:08:55.504Z,93.31
2023-01-30T17:11:38.123Z,93.58
2023-01-30T17:14:31.461Z,93.48
2023-01-30T17:17:10.701Z,93.64
2023-01-30T17:19:49.203Z,93.78
2023-01-30T17:22:25.122Z,93.49
2023-01-30T17:25:04.919Z,93.42
2023-01-30T17:27:44.127Z,93.38
2023-01-30T17:30:22.175Z,93.50
2023-01-30T17:32:57.701Z,93.55
2023-01-30T17:35:37.067Z,93.81
2023-01-30T17:38:14.027Z,93.64
2023-01-30T17:40:49.413Z,93.43
2023-01-30T17:43:23.345Z,93.70
2023-01-30T17:45:57.971Z,93.17
2023-01-30T17:48:34.275Z,93.47
2023-01-30T17:51:08.913Z,93.33
2023-01-30T17:53:44.147Z,93.36
2023-01-30T17:56:25.221Z,93.76
2023-01-30T17:59:01.300Z,93.74
2023-01-30T18:01:40.247Z,93.56
2023-01-30T18:04:15.232Z,93.45
2023-01-30T18:06:52.687Z,93.44
2023-01-30T18:09:29.200Z,93.69
2023-01-30T18:12:06.255Z,93.37
2023-01-30T18:14:42.161Z,93.50
2023-01-30T18:17:16.636Z,93.51
2023-01-30T18:19:55.151Z,93.26
2023-01-30T18:22:30.532Z,93.53
2023-01-30T18:25:05.867Z,93.11
2023-01-30T18:27:44.557Z,92.84
2023-01-30T18:30:26.294Z,93.02
2023-01-30T18:33:01.503Z,93.01
2023-01-30T18:35:39.763Z,92.76
2023-01-30T18:38:15.052Z,92.73
2023-01-30T18:40:50.558Z,92.46
2023-01-30T18:43:28.216Z,92.44
2023-01-30T18:46:12.996Z,92.61
2023-01-30T18:48:49.847Z,92.75
2023-01-30T18:51:28.445Z,92.48
2023-01-30T18:54:03.426Z,92.70
2023-01-30T18:56:42.511Z,92.90
2023-01-30T18:59:17.765Z,92.60
2023-01-30T19:01:53.653Z,92.44
2023-01-30T19:04:30.059Z,92.68
2023-01-30T19:07:09.101Z,92.53
2023-01-30T19:09:53.003Z,92.52
2023-01-30T19:12:46.898Z,92.45
2023-01-30T19:15:22.760Z,92.09
2023-01-30T19:17:58.764Z,92.23
2023-01-30T19:20:33.050Z,92.16
2023-01-30T19:23:11.009Z,92.01
2023-01-30T19:25:55.534Z,91.85
2023-01-30T19:28:40.070Z,91.64
2023-01-30T19:31:17.368Z,91.74
2023-01-30T19:33:58.556Z,91.68
2023-01-30T19:36:37.361Z,91.67
2023-01-30T19:39:13.887Z,91.69
2023-01-30T19:41:48.270Z,91.76
2023-01-30T19:44:24.198Z,91.52
2023-01-30T19:47:15.412Z,91.71
2023-01-30T19:49:51.059Z,91.57
2023-01-30T19:52:27.741Z,91.60
2023-01-30T19:55:02.926Z,91.51
2023-01-30T19:57:40.550Z,91.59
2023-01-30T20:00:23.848Z,91.50
2023-01-30T20:03:00.827Z,91.45
2023-01-30T20:05:36.733Z,91.73
2023-01-30T20:08:25.508Z,91.67
2023-01-30T20:11:08.339Z,91.75
2023-01-30T20:13:45.525Z,91.77
2023-01-30T20:16:25.584Z,91.58
2023-01-30T20:19:05.857Z,91.77
2023-01-30T20:21:41.248Z,91.62
2023-01-30T20:24:18.015Z,91.67
2023-01-30T20:26:55.028Z,91.53
2023-01-30T20:29:32.814Z,91.49
2023-01-30T20:32:08.770Z,91.42
2023-01-30T20:34:44.630Z,91.30
2023-01-30T20:37:19.538Z,91.44
2023-01-30T20:39:57.397Z,91.43
2023-01-30T20:42:33.504Z,91.52
2023-01-30T20:45:10.974Z,91.56
2023-01-30T20:47:46.273Z,91.35
2023-01-30T20:50:22.639Z,91.42
2023-01-30T20:52:58.671Z,91.37
2023-01-30T20:55:32.989Z,91.49
2023-01-30T20:58:09.709Z,91.05
2023-01-30T21:00:47.636Z,91.12
2023-01-30T21:03:22.917Z,91.12
2023-01-30T21:06:05.301Z,91.21
2023-01-30T21:08:42.796Z,91.14
2023-01-30T21:11:20.291Z,91.18
2023-01-30T21:13:55.368Z,91.02
2023-01-30T21:16:32.964Z,91.05
2023-01-30T21:19:13.653Z,90.89
2023-01-30T21:21:54.812Z,90.80
2023-01-30T21:24:31.720Z,90.59
2023-01-30T21:27:09.383Z,90.79
2023-01-30T21:29:43.553Z,90.61
2023-01-30T21:32:20.294Z,90.66
2023-01-30T21:34:58.192Z,90.45
2023-01-30T21:37:50.158Z,90.51
2023-01-30T21:40:43.218Z,90.41
2023-01-30T21:43:21.961Z,90.54
2023-01-30T21:46:01.828Z,90.68
2023-01-30T21:48:36.574Z,90.49
2023-01-30T21:51:17.400Z,90.37
2023-01-30T21:53:52.623Z,90.31
2023-01-30T21:56:29.031Z,90.52
2023-01-30T21:59:05.502Z,90.52
2023-01-30T22:01:41.272Z,90.50
2023-01-30T22:04:17.805Z,90.28
2023-01-30T22:06:52.358Z,90.34
2023-01-30T22:09:28.033Z,90.24
2023-01-30T22:12:02.120Z,90.23
2023-01-30T22:14:37.832Z,90.54
2023-01-30T22:17:13.288Z,90.38
2023-01-30T22:19:47.967Z,90.45
2023-01-30T22:22:26.073Z,90.16
2023-01-30T22:25:02.964Z,90.48
2023-01-30T22:27:42.483Z,90.43
2023-01-30T22:30:20.340Z,90.32
2023-01-30T22:32:58.018Z,90.37
2023-01-30T22:35:33.446Z,90.17
2023-01-30T22:38:10.206Z,90.24
2023-01-30T22:40:44.868Z,90.35
2023-01-30T22:43:20.354Z,90.31
2023-01-30T22:46:01.183Z,90.42
2023-01-30T22:48:37.179Z,90.32
2023-01-30T22:51:14.289Z,90.11
2023-01-30T22:53:50.977Z,90.37
2023-01-30T22:56:28.686Z,90.32
2023-01-30T22:59:03.615Z,90.64
2023-01-30T23:01:40.060Z,90.36
2023-01-30T23:04:19.531Z,90.20
2023-01-30T23:06:56.512Z,90.28
2023-01-30T23:09:33.238Z,90.31
2023-01-30T23:12:26.446Z,90.35
2023-01-30T23:15:01.208Z,90.37
2023-01-30T23:17:53.378Z,90.25
2023-01-30T23:20:28.053Z,90.37
2023-01-30T23:23:03.315Z,90.44
2023-01-30T23:25:41.042Z,90.46
2023-01-30T23:28:15.551Z,90.44
2023-01-30T23:30:51.653Z,90.23
2023-01-30T23:33:27.290Z,90.47
2023-01-30T23:36:07.824Z,90.49
2023-01-30T23:38:44.640Z,90.35
2023-01-30T23:41:20.361Z,90.28
2023-01-30T23:43:59.446Z,90.32
2023-01-30T23:46:40.080Z,90.13
2023-01-30T23:49:16.647Z,90.30
2023-01-30T23:51:51.490Z,90.13
2023-01-30T23:54:26.369Z,90.15
2023-01-30T23:57:01.231Z,89.84
2023-01-30T23:59:37.406Z,90.06
